Wetterdaten: Woche 07.03.16 - 13.03.16 (KW10)
Datum Zeit Temperatur Luftfeuchte Luftdruck Niederschlag Windrichtung Sonnenschein Solar Wind
07.03.2016 00:00 -0,5 C 92 % 1004,1 hPa 0,0 l/m W 0,00 h 0 W/m 13,2 km/h (3 Bft)
07.03.2016 01:00 -0,6 C 92 % 1003,8 hPa 0,0 l/m W-SW 0,00 h 0 W/m 7,2 km/h (2 Bft)
07.03.2016 02:00 -0,6 C 92 % 1003,7 hPa 0,0 l/m N 0,00 h 0 W/m 1,5 km/h (1 Bft)
07.03.2016 03:00 -1,0 C 93 % 1003,4 hPa 0,0 l/m W-SW 0,00 h 0 W/m 3,6 km/h (1 Bft)
07.03.2016 04:00 -1,1 C 93 % 1003,4 hPa 0,0 l/m W-SW 0,00 h 0 W/m 5,1 km/h (1 Bft)
07.03.2016 05:00 -1,3 C 93 % 1003,5 hPa 0,0 l/m W-SW 0,00 h 0 W/m 3,5 km/h (1 Bft)
07.03.2016 06:00 -1,4 C 94 % 1003,5 hPa 0,0 l/m N 0,00 h 5 W/m 1,1 km/h (0 Bft)
07.03.2016 07:00 -1,6 C 94 % 1003,8 hPa 0,0 l/m N 0,00 h 43 W/m 1,3 km/h (1 Bft)
07.03.2016 08:00 -0,6 C 95 % 1004,0 hPa 0,0 l/m SW 0,58 h 143 W/m 6,6 km/h (2 Bft)
07.03.2016 09:00 0,6 C 89 % 1004,1 hPa 0,0 l/m SW 0,92 h 340 W/m 7,8 km/h (2 Bft)
07.03.2016 10:00 1,6 C 82 % 1003,8 hPa 0,0 l/m W-SW 0,42 h 288 W/m 8,7 km/h (2 Bft)
07.03.2016 11:00 1,9 C 78 % 1003,6 hPa 0,0 l/m W-SW 0,00 h 95 W/m 8,4 km/h (2 Bft)
07.03.2016 12:00 2,5 C 78 % 1003,4 hPa 0,0 l/m W-NW 0,25 h 326 W/m 6,7 km/h (2 Bft)
07.03.2016 13:00 4,0 C 69 % 1002,9 hPa 0,0 l/m W-NW 0,58 h 451 W/m 10,5 km/h (2 Bft)
07.03.2016 14:00 4,7 C 60 % 1002,5 hPa 0,0 l/m W-NW 0,42 h 289 W/m 13,0 km/h (3 Bft)
07.03.2016 15:00 4,9 C 59 % 1002,4 hPa 0,0 l/m W-NW 0,67 h 326 W/m 10,6 km/h (2 Bft)
07.03.2016 16:00 5,3 C 53 % 1002,4 hPa 0,0 l/m W 1,00 h 261 W/m 6,9 km/h (2 Bft)
07.03.2016 17:00 4,8 C 59 % 1002,7 hPa 0,0 l/m S-SO 0,33 h 64 W/m 4,5 km/h (1 Bft)
07.03.2016 18:00 3,0 C 69 % 1003,2 hPa 0,0 l/m N 0,08 h 7 W/m 0,0 km/h (0 Bft)
07.03.2016 19:00 0,6 C 75 % 1003,7 hPa 0,0 l/m N 0,00 h 0 W/m 0,0 km/h (0 Bft)
07.03.2016 20:00 -0,7 C 81 % 1004,2 hPa 0,0 l/m N 0,00 h 0 W/m 0,0 km/h (0 Bft)
07.03.2016 21:00 -1,5 C 85 % 1004,8 hPa 0,0 l/m N 0,00 h 0 W/m 0,0 km/h (0 Bft)
07.03.2016 22:00 -1,9 C 87 % 1005,2 hPa 0,0 l/m S-SO 0,00 h 0 W/m 1,3 km/h (1 Bft)
07.03.2016 23:00 -2,2 C 89 % 1005,7 hPa 0,0 l/m N 0,00 h 0 W/m 1,3 km/h (1 Bft)
08.03.2016 00:00 -2,3 C 91 % 1006,2 hPa 0,0 l/m N 0,00 h 0 W/m 1,3 km/h (1 Bft)
08.03.2016 01:00 -2,4 C 92 % 1006,8 hPa 0,0 l/m N 0,00 h 0 W/m 0,3 km/h (0 Bft)
08.03.2016 02:00 -2,7 C 93 % 1007,2 hPa 0,0 l/m N 0,00 h 0 W/m 0,0 km/h (0 Bft)
08.03.2016 03:00 -3,1 C 93 % 1007,8 hPa 0,0 l/m N 0,00 h 0 W/m 0,8 km/h (0 Bft)
08.03.2016 04:00 -2,9 C 94 % 1008,4 hPa 0,0 l/m S-SO 0,00 h 0 W/m 0,8 km/h (0 Bft)
08.03.2016 05:00 -3,0 C 95 % 1009,2 hPa 0,0 l/m N 0,00 h 0 W/m 0,3 km/h (0 Bft)
08.03.2016 06:00 -3,2 C 95 % 1010,3 hPa 0,0 l/m N 0,00 h 5 W/m 0,0 km/h (0 Bft)
08.03.2016 07:00 -3,3 C 96 % 1011,3 hPa 0,0 l/m S-SO 0,00 h 33 W/m 1,1 km/h (0 Bft)
08.03.2016 08:00 -2,5 C 97 % 1012,4 hPa 0,0 l/m N 0,00 h 76 W/m 0,5 km/h (0 Bft)
08.03.2016 09:00 -1,6 C 97 % 1013,4 hPa 0,0 l/m S-SO 0,00 h 102 W/m 2,3 km/h (1 Bft)
08.03.2016 10:00 -0,5 C 95 % 1013,9 hPa 0,0 l/m N 0,08 h 208 W/m 0,7 km/h (0 Bft)
08.03.2016 11:00 1,7 C 89 % 1014,2 hPa 0,0 l/m S-SO 1,00 h 577 W/m 4,8 km/h (1 Bft)
08.03.2016 12:00 3,9 C 78 % 1014,3 hPa 0,0 l/m S 0,58 h 454 W/m 5,5 km/h (1 Bft)
08.03.2016 13:00 3,8 C 76 % 1014,4 hPa 0,0 l/m S-SW 0,17 h 245 W/m 5,8 km/h (1 Bft)
08.03.2016 14:00 4,6 C 70 % 1014,5 hPa 0,0 l/m SW 0,33 h 294 W/m 11,0 km/h (2 Bft)
08.03.2016 15:00 1,9 C 86 % 1015,3 hPa 0,0 l/m N-NO 0,00 h 41 W/m 10,0 km/h (2 Bft)
08.03.2016 16:00 1,1 C 92 % 1015,4 hPa 0,0 l/m W-SW 0,17 h 126 W/m 7,1 km/h (2 Bft)
08.03.2016 17:00 1,1 C 91 % 1015,8 hPa 0,0 l/m N 0,00 h 28 W/m 0,4 km/h (0 Bft)
08.03.2016 18:00 0,6 C 92 % 1016,5 hPa 0,4 l/m N 0,00 h 6 W/m 0,0 km/h (0 Bft)
08.03.2016 19:00 0,1 C 95 % 1017,3 hPa 0,2 l/m N 0,00 h 0 W/m 0,0 km/h (0 Bft)
08.03.2016 20:00 0,2 C 95 % 1017,9 hPa 0,0 l/m W-SW 0,00 h 0 W/m 1,2 km/h (1 Bft)
08.03.2016 21:00 0,3 C 96 % 1018,5 hPa 1,2 l/m N 0,00 h 0 W/m 0,0 km/h (0 Bft)
08.03.2016 22:00 0,1 C 96 % 1018,6 hPa 0,2 l/m N 0,00 h 0 W/m 0,0 km/h (0 Bft)
08.03.2016 23:00 -0,2 C 96 % 1017,9 hPa 0,0 l/m N 0,00 h 0 W/m 0,0 km/h (0 Bft)
09.03.2016 00:00 -0,2 C 96 % 1017,1 hPa 0,0 l/m N 0,00 h 0 W/m 0,0 km/h (0 Bft)
09.03.2016 01:00 -0,2 C 97 % 1016,6 hPa 0,0 l/m N 0,00 h 0 W/m 0,0 km/h (0 Bft)
09.03.2016 02:00 -0,3 C 97 % 1015,7 hPa 0,0 l/m N 0,00 h 0 W/m 0,0 km/h (0 Bft)
09.03.2016 03:00 -0,8 C 97 % 1014,5 hPa 0,0 l/m N 0,00 h 0 W/m 0,0 km/h (0 Bft)
09.03.2016 04:00 -1,0 C 97 % 1014,1 hPa 0,0 l/m N 0,00 h 0 W/m 0,0 km/h (0 Bft)
09.03.2016 05:00 -1,1 C 97 % 1013,5 hPa 0,0 l/m N 0,00 h 0 W/m 0,0 km/h (0 Bft)
09.03.2016 06:00 -1,8 C 97 % 1012,8 hPa 0,0 l/m N 0,00 h 5 W/m 0,0 km/h (0 Bft)
09.03.2016 07:00 -2,2 C 97 % 1012,3 hPa 0,0 l/m N 0,00 h 26 W/m 0,0 km/h (0 Bft)
09.03.2016 08:00 -2,0 C 98 % 1011,8 hPa 0,0 l/m N 0,00 h 75 W/m 0,0 km/h (0 Bft)
09.03.2016 09:00 -1,2 C 98 % 1010,8 hPa 0,0 l/m SO 0,00 h 156 W/m 2,7 km/h (1 Bft)
09.03.2016 10:00 -0,6 C 98 % 1009,6 hPa 0,0 l/m O 0,00 h 128 W/m 7,1 km/h (2 Bft)
09.03.2016 11:00 0,1 C 96 % 1008,6 hPa 0,0 l/m NO 0,17 h 291 W/m 12,2 km/h (2 Bft)
09.03.2016 12:00 0,9 C 90 % 1007,5 hPa 0,0 l/m O-NO 0,25 h 300 W/m 14,1 km/h (3 Bft)
09.03.2016 13:00 2,6 C 85 % 1006,4 hPa 0,0 l/m O-NO 0,92 h 643 W/m 13,8 km/h (3 Bft)
09.03.2016 14:00 4,3 C 76 % 1005,5 hPa 0,0 l/m O-NO 0,92 h 508 W/m 12,9 km/h (3 Bft)
09.03.2016 15:00 5,2 C 72 % 1005,0 hPa 0,0 l/m NO 1,00 h 425 W/m 12,1 km/h (2 Bft)
09.03.2016 16:00 5,4 C 71 % 1004,6 hPa 0,0 l/m O-NO 1,00 h 269 W/m 10,3 km/h (2 Bft)
09.03.2016 17:00 4,9 C 74 % 1004,7 hPa 0,0 l/m O-NO 0,58 h 80 W/m 11,2 km/h (2 Bft)
09.03.2016 18:00 3,6 C 79 % 1005,3 hPa 0,0 l/m O-NO 0,00 h 8 W/m 10,1 km/h (2 Bft)
09.03.2016 19:00 2,3 C 83 % 1005,8 hPa 0,0 l/m N 0,00 h 0 W/m 3,9 km/h (1 Bft)
09.03.2016 20:00 0,8 C 86 % 1006,3 hPa 0,0 l/m O-NO 0,00 h 0 W/m 5,3 km/h (1 Bft)
09.03.2016 21:00 -0,5 C 90 % 1006,7 hPa 0,0 l/m NO 0,00 h 0 W/m 5,2 km/h (1 Bft)
09.03.2016 22:00 -1,1 C 92 % 1007,1 hPa 0,0 l/m NO 0,00 h 0 W/m 3,6 km/h (1 Bft)
09.03.2016 23:00 -1,5 C 93 % 1007,4 hPa 0,0 l/m NO 0,00 h 0 W/m 3,3 km/h (1 Bft)
10.03.2016 00:00 -1,8 C 94 % 1007,8 hPa 0,0 l/m NO 0,00 h 0 W/m 3,7 km/h (1 Bft)
10.03.2016 01:00 -2,1 C 94 % 1008,7 hPa 0,0 l/m N 0,00 h 0 W/m 0,0 km/h (0 Bft)
10.03.2016 02:00 -2,7 C 94 % 1009,2 hPa 0,0 l/m N 0,00 h 0 W/m 0,0 km/h (0 Bft)
10.03.2016 03:00 -3,2 C 94 % 1009,7 hPa 0,0 l/m N 0,00 h 0 W/m 0,0 km/h (0 Bft)
10.03.2016 04:00 -3,7 C 94 % 1010,5 hPa 0,0 l/m N 0,00 h 0 W/m 0,0 km/h (0 Bft)
10.03.2016 05:00 -4,1 C 94 % 1011,4 hPa 0,0 l/m N 0,00 h 0 W/m 0,0 km/h (0 Bft)
10.03.2016 06:00 -4,5 C 94 % 1012,4 hPa 0,0 l/m N 0,00 h 7 W/m 0,0 km/h (0 Bft)
10.03.2016 07:00 -4,6 C 94 % 1013,2 hPa 0,0 l/m N 0,00 h 44 W/m 0,0 km/h (0 Bft)
10.03.2016 08:00 -3,0 C 95 % 1013,8 hPa 0,0 l/m N 0,67 h 174 W/m 0,0 km/h (0 Bft)
10.03.2016 09:00 -0,6 C 94 % 1014,4 hPa 0,0 l/m N 1,00 h 344 W/m 1,5 km/h (1 Bft)
10.03.2016 10:00 2,2 C 90 % 1014,9 hPa 0,0 l/m NO 1,00 h 468 W/m 6,2 km/h (2 Bft)
10.03.2016 11:00 4,5 C 81 % 1015,2 hPa 0,0 l/m O-NO 1,00 h 586 W/m 11,0 km/h (2 Bft)
10.03.2016 12:00 6,1 C 72 % 1015,2 hPa 0,0 l/m N-NO 1,00 h 605 W/m 14,5 km/h (3 Bft)
10.03.2016 13:00 7,2 C 64 % 1015,2 hPa 0,0 l/m NO 1,00 h 606 W/m 15,0 km/h (3 Bft)
10.03.2016 14:00 8,0 C 61 % 1015,1 hPa 0,0 l/m NO 1,00 h 542 W/m 15,6 km/h (3 Bft)
10.03.2016 15:00 8,4 C 61 % 1015,5 hPa 0,0 l/m O-NO 1,00 h 425 W/m 15,3 km/h (3 Bft)
10.03.2016 16:00 8,4 C 61 % 1015,7 hPa 0,0 l/m O-NO 1,00 h 272 W/m 15,2 km/h (3 Bft)
10.03.2016 17:00 7,5 C 65 % 1016,2 hPa 0,0 l/m O-NO 0,58 h 84 W/m 14,6 km/h (3 Bft)
10.03.2016 18:00 6,0 C 71 % 1017,0 hPa 0,0 l/m O-NO 0,00 h 9 W/m 6,6 km/h (2 Bft)
10.03.2016 19:00 4,7 C 77 % 1017,9 hPa 0,0 l/m O-NO 0,00 h 0 W/m 2,9 km/h (1 Bft)
10.03.2016 20:00 3,3 C 81 % 1018,5 hPa 0,0 l/m N 0,00 h 0 W/m 0,5 km/h (0 Bft)
10.03.2016 21:00 2,1 C 85 % 1018,8 hPa 0,0 l/m O-NO 0,00 h 0 W/m 3,1 km/h (1 Bft)
10.03.2016 22:00 1,5 C 89 % 1019,2 hPa 0,0 l/m O-NO 0,00 h 0 W/m 6,2 km/h (2 Bft)
10.03.2016 23:00 1,8 C 89 % 1019,4 hPa 0,0 l/m N-NO 0,00 h 0 W/m 11,8 km/h (2 Bft)
11.03.2016 00:00 1,8 C 89 % 1019,6 hPa 0,0 l/m N-NO 0,00 h 0 W/m 12,6 km/h (3 Bft)
11.03.2016 01:00 1,5 C 89 % 1020,0 hPa 0,0 l/m NO 0,00 h 0 W/m 9,0 km/h (2 Bft)
11.03.2016 02:00 0,8 C 90 % 1020,2 hPa 0,0 l/m NO 0,00 h 0 W/m 5,1 km/h (1 Bft)
11.03.2016 03:00 -0,1 C 91 % 1020,3 hPa 0,0 l/m N 0,00 h 0 W/m 2,4 km/h (1 Bft)
11.03.2016 04:00 -0,5 C 93 % 1020,5 hPa 0,0 l/m N 0,00 h 0 W/m 1,6 km/h (1 Bft)
11.03.2016 05:00 -0,8 C 94 % 1020,6 hPa 0,0 l/m NO 0,00 h 0 W/m 2,4 km/h (1 Bft)
11.03.2016 06:00 -1,2 C 94 % 1020,7 hPa 0,0 l/m NO 0,00 h 7 W/m 5,1 km/h (1 Bft)
11.03.2016 07:00 -1,2 C 95 % 1020,9 hPa 0,0 l/m NO 0,00 h 41 W/m 3,9 km/h (1 Bft)
11.03.2016 08:00 -0,1 C 95 % 1021,1 hPa 0,0 l/m NO 0,00 h 117 W/m 4,8 km/h (1 Bft)
11.03.2016 09:00 1,1 C 92 % 1021,3 hPa 0,0 l/m NO 0,33 h 251 W/m 10,3 km/h (2 Bft)
11.03.2016 10:00 2,8 C 87 % 1021,2 hPa 0,0 l/m O-NO 0,67 h 372 W/m 15,2 km/h (3 Bft)
11.03.2016 11:00 3,3 C 86 % 1021,3 hPa 0,0 l/m N-NO 0,42 h 404 W/m 14,9 km/h (3 Bft)
11.03.2016 12:00 4,5 C 82 % 1021,3 hPa 0,0 l/m NO 0,50 h 379 W/m 16,9 km/h (3 Bft)
11.03.2016 13:00 5,2 C 80 % 1021,2 hPa 0,0 l/m O-NO 0,17 h 274 W/m 18,1 km/h (3 Bft)
11.03.2016 14:00 5,9 C 78 % 1021,2 hPa 0,0 l/m NO 0,00 h 137 W/m 20,2 km/h (4 Bft)
11.03.2016 15:00 6,2 C 77 % 1021,2 hPa 0,0 l/m O-NO 0,00 h 119 W/m 19,3 km/h (3 Bft)
11.03.2016 16:00 6,4 C 71 % 1021,4 hPa 0,0 l/m O-NO 0,00 h 67 W/m 19,7 km/h (3 Bft)
11.03.2016 17:00 6,0 C 71 % 1021,7 hPa 0,0 l/m O-NO 0,00 h 25 W/m 17,4 km/h (3 Bft)
11.03.2016 18:00 5,5 C 73 % 1022,3 hPa 0,0 l/m NO 0,00 h 8 W/m 14,4 km/h (3 Bft)
11.03.2016 19:00 5,1 C 75 % 1022,8 hPa 0,0 l/m O-NO 0,00 h 0 W/m 11,4 km/h (2 Bft)
11.03.2016 20:00 4,9 C 75 % 1023,2 hPa 0,0 l/m O-NO 0,00 h 0 W/m 14,9 km/h (3 Bft)
11.03.2016 21:00 4,7 C 75 % 1023,3 hPa 0,0 l/m NO 0,00 h 0 W/m 14,0 km/h (3 Bft)
11.03.2016 22:00 4,4 C 76 % 1023,5 hPa 0,0 l/m O-NO 0,00 h 0 W/m 13,0 km/h (3 Bft)
11.03.2016 23:00 4,2 C 76 % 1023,5 hPa 0,0 l/m O-NO 0,00 h 0 W/m 15,2 km/h (3 Bft)
12.03.2016 00:00 3,8 C 78 % 1023,4 hPa 0,0 l/m NO 0,00 h 0 W/m 13,4 km/h (3 Bft)
12.03.2016 01:00 3,4 C 80 % 1023,1 hPa 0,0 l/m O-NO 0,00 h 0 W/m 14,5 km/h (3 Bft)
12.03.2016 02:00 2,9 C 83 % 1023,0 hPa 0,0 l/m O-NO 0,00 h 0 W/m 12,8 km/h (3 Bft)
12.03.2016 03:00 2,4 C 84 % 1022,8 hPa 0,0 l/m NO 0,00 h 0 W/m 11,8 km/h (2 Bft)
12.03.2016 04:00 2,1 C 85 % 1022,9 hPa 0,0 l/m NO 0,00 h 0 W/m 10,8 km/h (2 Bft)
12.03.2016 05:00 2,0 C 87 % 1022,9 hPa 0,0 l/m O-NO 0,00 h 0 W/m 12,2 km/h (2 Bft)
12.03.2016 06:00 1,9 C 88 % 1023,0 hPa 0,0 l/m O-NO 0,00 h 5 W/m 13,6 km/h (3 Bft)
12.03.2016 07:00 1,8 C 89 % 1023,4 hPa 0,0 l/m O-NO 0,00 h 19 W/m 14,2 km/h (3 Bft)
12.03.2016 08:00 2,0 C 89 % 1023,9 hPa 0,0 l/m O-NO 0,00 h 40 W/m 13,3 km/h (3 Bft)
12.03.2016 09:00 2,5 C 89 % 1024,1 hPa 0,0 l/m NO 0,00 h 73 W/m 14,8 km/h (3 Bft)
12.03.2016 10:00 3,2 C 86 % 1024,4 hPa 0,0 l/m O-NO 0,00 h 85 W/m 14,6 km/h (3 Bft)
12.03.2016 11:00 3,7 C 85 % 1024,4 hPa 0,0 l/m O-NO 0,00 h 128 W/m 16,8 km/h (3 Bft)
12.03.2016 12:00 4,5 C 82 % 1024,3 hPa 0,0 l/m O-NO 0,00 h 147 W/m 16,6 km/h (3 Bft)
12.03.2016 13:00 5,5 C 77 % 1023,8 hPa 0,0 l/m O-NO 0,00 h 114 W/m 17,3 km/h (3 Bft)
12.03.2016 14:00 6,1 C 73 % 1023,4 hPa 0,0 l/m NO 0,00 h 106 W/m 16,0 km/h (3 Bft)
12.03.2016 15:00 6,3 C 72 % 1023,2 hPa 0,0 l/m O-NO 0,00 h 65 W/m 16,6 km/h (3 Bft)
12.03.2016 16:00 6,1 C 72 % 1023,4 hPa 0,0 l/m O-NO 0,00 h 32 W/m 16,5 km/h (3 Bft)
12.03.2016 17:00 5,8 C 74 % 1023,5 hPa 0,0 l/m O-NO 0,00 h 9 W/m 13,3 km/h (3 Bft)
12.03.2016 18:00 5,6 C 76 % 1023,8 hPa 0,0 l/m O-NO 0,00 h 0 W/m 13,2 km/h (3 Bft)
12.03.2016 19:00 5,3 C 76 % 1024,5 hPa 0,0 l/m NO 0,00 h 0 W/m 10,3 km/h (2 Bft)
12.03.2016 20:00 5,0 C 76 % 1024,9 hPa 0,0 l/m NO 0,00 h 0 W/m 17,0 km/h (3 Bft)
12.03.2016 21:00 4,6 C 78 % 1025,0 hPa 0,0 l/m NO 0,00 h 0 W/m 17,6 km/h (3 Bft)
12.03.2016 22:00 4,2 C 80 % 1024,8 hPa 0,0 l/m O-NO 0,00 h 0 W/m 17,0 km/h (3 Bft)
12.03.2016 23:00 3,9 C 83 % 1024,6 hPa 0,0 l/m O-NO 0,00 h 0 W/m 16,5 km/h (3 Bft)
13.03.2016 00:00 3,7 C 86 % 1024,3 hPa 0,0 l/m NO 0,00 h 0 W/m 15,7 km/h (3 Bft)
13.03.2016 01:00 3,5 C 90 % 1024,2 hPa 0,0 l/m O-NO 0,00 h 0 W/m 18,6 km/h (3 Bft)
13.03.2016 02:00 3,3 C 91 % 1024,0 hPa 0,0 l/m O-NO 0,00 h 0 W/m 21,6 km/h (4 Bft)
13.03.2016 03:00 2,9 C 92 % 1023,8 hPa 0,0 l/m O-NO 0,00 h 0 W/m 21,0 km/h (4 Bft)
13.03.2016 04:00 2,4 C 92 % 1023,9 hPa 0,0 l/m NO 0,00 h 0 W/m 20,2 km/h (4 Bft)
13.03.2016 05:00 2,1 C 92 % 1024,1 hPa 0,0 l/m O-NO 0,00 h 0 W/m 20,4 km/h (4 Bft)
13.03.2016 06:00 1,8 C 93 % 1024,2 hPa 0,0 l/m NO 0,00 h 0 W/m 21,0 km/h (4 Bft)
13.03.2016 07:00 1,6 C 93 % 1024,5 hPa 0,0 l/m O-NO 0,00 h 11 W/m 19,0 km/h (3 Bft)
13.03.2016 08:00 1,8 C 92 % 1025,1 hPa 0,0 l/m O-NO 0,00 h 26 W/m 18,9 km/h (3 Bft)
13.03.2016 09:00 2,3 C 91 % 1025,3 hPa 0,0 l/m O-NO 0,00 h 58 W/m 23,5 km/h (4 Bft)
13.03.2016 10:00 3,0 C 89 % 1025,6 hPa 0,0 l/m O-NO 0,00 h 99 W/m 22,8 km/h (4 Bft)
13.03.2016 11:00 4,1 C 84 % 1025,6 hPa 0,0 l/m O-NO 0,00 h 151 W/m 26,0 km/h (4 Bft)
13.03.2016 12:00 5,0 C 80 % 1025,5 hPa 0,0 l/m O-NO 0,00 h 141 W/m 26,2 km/h (4 Bft)
13.03.2016 13:00 5,5 C 77 % 1025,2 hPa 0,0 l/m O-SO 0,00 h 112 W/m 29,5 km/h (5 Bft)
13.03.2016 14:00 5,9 C 73 % 1024,8 hPa 0,0 l/m O-SO 0,00 h 123 W/m 32,1 km/h (5 Bft)
13.03.2016 15:00 5,8 C 72 % 1024,4 hPa 0,0 l/m O 0,00 h 75 W/m 32,1 km/h (5 Bft)
13.03.2016 16:00 5,6 C 73 % 1024,4 hPa 0,0 l/m O 0,08 h 73 W/m 29,8 km/h (5 Bft)
13.03.2016 17:00 5,4 C 73 % 1024,6 hPa 0,0 l/m O 0,00 h 22 W/m 26,1 km/h (4 Bft)
13.03.2016 18:00 5,2 C 71 % 1025,2 hPa 0,0 l/m O 0,00 h 7 W/m 27,6 km/h (4 Bft)
13.03.2016 19:00 5,0 C 72 % 1025,5 hPa 0,0 l/m O 0,00 h 0 W/m 29,2 km/h (5 Bft)
13.03.2016 20:00 4,6 C 77 % 1025,5 hPa 0,0 l/m O-NO 0,00 h 0 W/m 19,3 km/h (3 Bft)
13.03.2016 21:00 4,0 C 84 % 1025,6 hPa 0,0 l/m O-NO 0,00 h 0 W/m 19,8 km/h (4 Bft)
13.03.2016 22:00 3,9 C 86 % 1025,7 hPa 0,0 l/m O-NO 0,00 h 0 W/m 20,9 km/h (4 Bft)
13.03.2016 23:00 3,7 C 85 % 1025,5 hPa 0,0 l/m O 0,00 h 0 W/m 25,2 km/h (4 Bft)
Min-Datum _ 10.03.16 07.03.16 07.03.16 - - - - 07.03.16
_ Min-Zeit 06:50 16:25 16:20 - - - - 01:25
Minimum _ -4,7 C 51 % 1002,2 hPa - - - - 0,0 km/h (0 Bft)
Max-Datum _ 10.03.16 08.03.16 13.03.16 08.03.16 - 07.03.16 09.03.16 13.03.16
_ Max-Zeit 15:35 19:40 20:45 21:05 - 08:05 13:10 14:55
Maximum _ 8,6 C 100 % 1025,8 hPa 1,2 l/m - 0,08 h 779 W/m 46,7 km/h
O (6 Bft)
Durchschnitt _ 1,9 C 85 % 1015,8 hPa #2,0 l/m O-NO #23:50 h 178 W/m 9,8 km/h (2 Bft)